createdAt,value
2022-12-12T00:01:18.125Z,11.15
2022-12-12T00:03:46.605Z,10.68
2022-12-12T00:06:39.703Z,10.43
2022-12-12T00:09:09.524Z,10.00
2022-12-12T00:11:38.881Z,10.85
2022-12-12T00:14:07.170Z,11.60
2022-12-12T00:16:35.149Z,11.23
2022-12-12T00:19:03.291Z,10.80
2022-12-12T00:21:31.467Z,12.35
2022-12-12T00:23:59.730Z,12.27
2022-12-12T00:26:29.932Z,12.52
2022-12-12T00:29:00.663Z,11.30
2022-12-12T00:31:29.719Z,12.60
2022-12-12T00:33:58.228Z,11.90
2022-12-12T00:36:29.337Z,9.93
2022-12-12T00:38:58.170Z,11.68
2022-12-12T00:41:26.314Z,10.43
2022-12-12T00:43:54.448Z,12.55
2022-12-12T00:46:26.380Z,10.73
2022-12-12T00:48:56.277Z,12.90
2022-12-12T00:51:26.910Z,10.20
2022-12-12T00:53:57.904Z,13.23
2022-12-12T00:56:27.301Z,11.48
2022-12-12T00:58:55.653Z,13.20
2022-12-12T01:01:28.003Z,10.73
2022-12-12T01:03:56.539Z,12.63
2022-12-12T01:06:25.061Z,12.57
2022-12-12T01:08:53.907Z,13.10
2022-12-12T01:11:22.656Z,11.52
2022-12-12T01:13:52.996Z,14.40
2022-12-12T01:16:21.877Z,11.65
2022-12-12T01:18:51.761Z,12.93
2022-12-12T01:21:21.362Z,12.70
2022-12-12T01:23:49.847Z,12.10
2022-12-12T01:26:20.390Z,12.15
2022-12-12T01:29:45.191Z,11.60
2022-12-12T01:32:13.542Z,16.75
2022-12-12T01:34:42.824Z,13.07
2022-12-12T01:37:11.035Z,15.27
2022-12-12T01:39:39.017Z,13.57
2022-12-12T01:42:14.078Z,11.27
2022-12-12T01:44:45.210Z,13.15
2022-12-12T01:47:14.711Z,11.93
2022-12-12T01:49:47.877Z,13.27
2022-12-12T01:52:20.878Z,12.18
2022-12-12T01:54:56.182Z,10.65
2022-12-12T01:57:30.603Z,10.82
2022-12-12T01:59:59.841Z,12.10
2022-12-12T02:02:28.982Z,11.63
2022-12-12T02:05:01.242Z,13.55
2022-12-12T02:07:29.460Z,12.38
2022-12-12T02:09:57.650Z,12.80
2022-12-12T02:12:25.864Z,14.05
2022-12-12T02:14:55.969Z,11.18
2022-12-12T02:17:37.743Z,10.50
2022-12-12T02:20:38.046Z,14.52
2022-12-12T02:23:36.294Z,12.27
2022-12-12T02:26:25.402Z,11.38
2022-12-12T02:29:12.086Z,12.02
2022-12-12T02:31:50.307Z,10.00
2022-12-12T02:34:32.707Z,12.38
2022-12-12T02:37:07.584Z,11.20
2022-12-12T02:39:45.837Z,10.40
2022-12-12T02:42:22.897Z,12.45
2022-12-12T02:44:58.071Z,11.60
2022-12-12T02:47:31.393Z,9.50
2022-12-12T02:50:04.280Z,10.05
2022-12-12T02:52:33.878Z,9.80
2022-12-12T02:55:02.521Z,10.15
2022-12-12T02:57:31.193Z,11.77
2022-12-12T03:00:04.090Z,10.43
2022-12-12T03:02:48.342Z,9.40
2022-12-12T03:05:57.959Z,11.55
2022-12-12T03:08:46.048Z,11.05
2022-12-12T03:11:21.409Z,10.52
2022-12-12T03:13:57.574Z,10.63
2022-12-12T03:16:29.279Z,10.50
2022-12-12T03:19:07.905Z,8.90
2022-12-12T03:21:40.735Z,9.63
2022-12-12T03:24:20.119Z,11.13
2022-12-12T03:26:53.568Z,9.82
2022-12-12T03:29:28.282Z,11.05
2022-12-12T03:32:01.655Z,12.30
2022-12-12T03:34:37.087Z,11.60
2022-12-12T03:37:13.855Z,10.95
2022-12-12T03:39:47.489Z,11.02
2022-12-12T03:42:25.567Z,8.75
2022-12-12T03:45:00.165Z,9.00
2022-12-12T03:47:34.162Z,11.40
2022-12-12T03:50:09.065Z,9.48
2022-12-12T03:52:42.600Z,12.68
2022-12-12T03:55:15.394Z,9.00
2022-12-12T03:57:48.690Z,11.13
2022-12-12T04:00:18.244Z,10.00
2022-12-12T04:02:52.646Z,10.18
2022-12-12T04:05:26.837Z,9.45
2022-12-12T04:08:01.942Z,11.73
2022-12-12T04:10:54.068Z,9.93
2022-12-12T04:13:33.613Z,10.00
2022-12-12T04:16:06.732Z,8.75
2022-12-12T04:18:40.630Z,9.60
2022-12-12T04:21:39.983Z,11.30
2022-12-12T04:24:21.438Z,8.50
2022-12-12T04:26:56.817Z,11.73
2022-12-12T04:29:32.139Z,9.93
2022-12-12T04:32:08.963Z,10.88
2022-12-12T04:34:44.429Z,9.73
2022-12-12T04:37:18.261Z,9.90
2022-12-12T04:39:49.667Z,13.00
2022-12-12T04:42:22.684Z,10.60
2022-12-12T04:44:56.103Z,9.98
2022-12-12T04:47:26.783Z,9.95
2022-12-12T04:49:57.968Z,13.55
2022-12-12T04:52:32.612Z,11.05
2022-12-12T04:55:04.591Z,11.30
2022-12-12T04:57:39.906Z,10.30
2022-12-12T05:00:09.967Z,10.35
2022-12-12T05:02:46.284Z,8.85
2022-12-12T05:05:20.189Z,9.15
2022-12-12T05:07:53.998Z,10.80
2022-12-12T05:10:22.518Z,12.02
2022-12-12T05:12:52.400Z,12.00
2022-12-12T05:15:22.082Z,10.98
2022-12-12T05:18:02.895Z,10.70
2022-12-12T05:20:31.013Z,11.68
2022-12-12T05:23:00.493Z,10.00
2022-12-12T05:25:28.720Z,9.73
2022-12-12T05:27:57.072Z,10.45
2022-12-12T05:30:26.614Z,10.40
2022-12-12T05:32:55.096Z,9.25
2022-12-12T05:35:23.588Z,9.93
2022-12-12T05:37:52.273Z,10.02
2022-12-12T05:40:23.473Z,8.65
2022-12-12T05:42:53.267Z,10.15
2022-12-12T05:45:21.346Z,9.07
2022-12-12T05:47:49.794Z,11.35
2022-12-12T05:50:18.726Z,12.25
2022-12-12T05:52:46.996Z,10.63
2022-12-12T05:55:15.572Z,11.50
2022-12-12T05:57:45.360Z,10.80
2022-12-12T06:00:14.361Z,10.45
2022-12-12T06:02:42.709Z,10.38
2022-12-12T06:05:11.581Z,10.63
2022-12-12T06:07:40.265Z,11.38
2022-12-12T06:10:09.577Z,11.40
2022-12-12T06:12:37.639Z,9.10
2022-12-12T06:15:07.965Z,11.02
2022-12-12T06:17:36.232Z,10.55
2022-12-12T06:20:05.860Z,12.40
2022-12-12T06:22:35.978Z,11.57
2022-12-12T06:25:05.003Z,10.10
2022-12-12T06:27:33.105Z,10.70
2022-12-12T06:30:01.467Z,10.35
2022-12-12T06:32:30.990Z,12.00
2022-12-12T06:34:59.180Z,10.32
2022-12-12T06:37:27.323Z,11.65
2022-12-12T06:39:55.532Z,12.98
2022-12-12T06:42:23.559Z,11.55
2022-12-12T06:44:51.638Z,11.38
2022-12-12T06:47:19.936Z,9.68
2022-12-12T06:49:49.299Z,10.63
2022-12-12T06:52:17.428Z,11.85
2022-12-12T06:54:45.568Z,12.38
2022-12-12T06:57:14.072Z,12.13
2022-12-12T06:59:42.257Z,9.85
2022-12-12T07:02:12.562Z,10.57
2022-12-12T07:04:40.764Z,10.68
2022-12-12T07:07:10.298Z,9.88
2022-12-12T07:09:38.442Z,8.30
2022-12-12T07:12:06.726Z,8.95
2022-12-12T07:14:35.034Z,10.65
2022-12-12T07:17:03.056Z,10.02
2022-12-12T07:19:31.209Z,9.00
2022-12-12T07:22:02.850Z,11.80
2022-12-12T07:24:35.382Z,9.13
2022-12-12T07:27:03.421Z,11.18
2022-12-12T07:29:31.568Z,10.75
2022-12-12T07:32:00.101Z,12.57
2022-12-12T07:34:30.423Z,9.48
2022-12-12T07:37:02.923Z,10.80
2022-12-12T07:39:31.740Z,9.25
2022-12-12T07:42:01.485Z,9.65
2022-12-12T07:44:29.683Z,10.73
2022-12-12T07:46:59.099Z,9.80
2022-12-12T07:49:29.050Z,9.60
2022-12-12T07:51:57.420Z,9.57
2022-12-12T07:54:25.471Z,8.90
2022-12-12T07:56:53.710Z,9.48
2022-12-12T07:59:23.151Z,8.50
2022-12-12T08:01:51.291Z,9.05
2022-12-12T08:04:19.437Z,10.65
2022-12-12T08:06:49.980Z,7.82
2022-12-12T08:09:20.181Z,9.35
2022-12-12T08:11:48.217Z,8.30
2022-12-12T08:14:16.638Z,8.50
2022-12-12T08:16:46.121Z,10.57
2022-12-12T08:19:14.209Z,8.80
2022-12-12T08:21:42.975Z,8.10
2022-12-12T08:24:13.120Z,8.85
2022-12-12T08:26:41.269Z,8.20
2022-12-12T08:29:10.778Z,9.23
2022-12-12T08:31:39.541Z,10.48
2022-12-12T08:34:09.819Z,10.07
2022-12-12T08:36:38.134Z,10.43
2022-12-12T08:39:09.534Z,9.75
2022-12-12T08:41:40.356Z,10.90
2022-12-12T08:44:10.031Z,9.48
2022-12-12T08:46:38.474Z,7.28
2022-12-12T08:49:06.762Z,10.65
2022-12-12T08:51:36.178Z,8.43
2022-12-12T08:54:04.473Z,8.75
2022-12-12T08:56:32.628Z,8.90
2022-12-12T08:59:01.230Z,9.38
2022-12-12T09:01:29.728Z,9.85
2022-12-12T09:03:58.690Z,10.55
2022-12-12T09:06:28.016Z,8.75
2022-12-12T09:08:58.398Z,9.32
2022-12-12T09:11:27.210Z,8.13
2022-12-12T09:13:55.478Z,8.23
2022-12-12T09:16:26.552Z,7.90
2022-12-12T09:18:54.880Z,9.18
2022-12-12T09:21:23.357Z,8.38
2022-12-12T09:23:51.639Z,9.38
2022-12-12T09:26:21.247Z,7.07
2022-12-12T09:28:50.458Z,8.52
2022-12-12T09:31:19.228Z,7.30
2022-12-12T09:33:47.820Z,8.35
2022-12-12T09:36:15.982Z,8.38
2022-12-12T09:38:44.842Z,7.70
2022-12-12T09:41:15.954Z,8.27
2022-12-12T09:43:52.384Z,6.35
2022-12-12T09:46:34.766Z,8.95
2022-12-12T09:49:12.639Z,9.30
2022-12-12T09:51:41.843Z,8.88
2022-12-12T09:54:14.547Z,10.90
2022-12-12T09:56:52.121Z,11.02
2022-12-12T09:59:28.782Z,10.65
2022-12-12T10:02:05.653Z,9.50
2022-12-12T10:04:40.614Z,9.77
2022-12-12T10:07:18.337Z,8.82
2022-12-12T10:10:03.992Z,10.65
2022-12-12T10:12:34.701Z,10.30
2022-12-12T10:15:08.280Z,12.35
2022-12-12T10:17:41.443Z,11.02
2022-12-12T10:20:16.743Z,9.98
2022-12-12T10:22:49.473Z,11.10
2022-12-12T10:25:22.368Z,11.00
2022-12-12T10:27:53.256Z,14.07
2022-12-12T10:30:23.171Z,16.80
2022-12-12T10:33:14.988Z,11.50
2022-12-12T10:35:54.596Z,14.35
2022-12-12T10:38:37.640Z,12.50
2022-12-12T10:41:13.116Z,12.70
2022-12-12T10:43:47.598Z,11.48
2022-12-12T10:46:29.356Z,14.82
2022-12-12T10:48:58.188Z,14.82
2022-12-12T10:51:30.606Z,11.20
2022-12-12T10:53:58.785Z,12.98
2022-12-12T10:56:29.009Z,14.38
2022-12-12T10:58:59.461Z,13.18
2022-12-12T11:02:00.975Z,11.30
2022-12-12T11:04:22.448Z,10.40
2022-12-12T11:06:53.656Z,12.40
2022-12-12T11:09:26.019Z,11.70
2022-12-12T11:11:59.684Z,13.10
2022-12-12T11:14:33.791Z,11.93
2022-12-12T11:17:03.560Z,11.45
2022-12-12T11:19:40.033Z,11.82
2022-12-12T11:22:13.615Z,11.98
2022-12-12T11:24:45.869Z,12.40
2022-12-12T11:27:22.865Z,11.20
2022-12-12T11:29:54.010Z,14.10
2022-12-12T11:32:27.084Z,12.77
2022-12-12T11:34:59.065Z,11.82
2022-12-12T11:37:31.268Z,13.15
2022-12-12T11:39:59.478Z,12.80
2022-12-12T11:42:29.920Z,12.32
2022-12-12T11:45:03.103Z,10.40
2022-12-12T11:47:40.788Z,11.40
2022-12-12T11:50:23.772Z,11.25
2022-12-12T11:52:56.110Z,11.32
2022-12-12T11:55:35.011Z,9.85
2022-12-12T11:58:14.888Z,10.70
2022-12-12T12:00:50.518Z,11.43
2022-12-12T12:03:48.098Z,11.70
2022-12-12T12:06:33.480Z,10.82
2022-12-12T12:09:17.612Z,12.40
2022-12-12T12:11:56.465Z,10.60
2022-12-12T12:14:40.728Z,11.15
2022-12-12T12:17:17.383Z,12.30
2022-12-12T12:19:54.949Z,10.63
2022-12-12T12:22:32.243Z,12.20
2022-12-12T12:25:31.837Z,11.85
2022-12-12T12:28:13.818Z,8.20
2022-12-12T12:30:55.875Z,9.57
2022-12-12T12:33:35.569Z,8.57
2022-12-12T12:36:20.905Z,10.10
2022-12-12T12:39:12.673Z,10.10
2022-12-12T12:41:57.185Z,9.15
2022-12-12T12:44:45.423Z,7.40
2022-12-12T12:47:27.848Z,10.43
2022-12-12T12:50:00.611Z,9.35
2022-12-12T12:52:36.411Z,8.35
2022-12-12T12:55:13.418Z,6.55
2022-12-12T12:57:45.499Z,7.95
2022-12-12T13:00:18.096Z,8.88
2022-12-12T13:02:51.866Z,8.80
2022-12-12T13:06:45.561Z,7.68
2022-12-12T13:09:28.944Z,6.72
2022-12-12T13:12:02.542Z,8.10
2022-12-12T13:14:41.159Z,9.43
2022-12-12T13:17:17.837Z,9.00
2022-12-12T13:19:48.256Z,7.82
2022-12-12T13:22:25.630Z,8.85
2022-12-12T13:25:00.585Z,7.80
2022-12-12T13:27:35.303Z,7.50
2022-12-12T13:30:10.158Z,7.25
2022-12-12T13:32:57.251Z,6.95
2022-12-12T13:35:30.820Z,6.18
2022-12-12T13:38:01.643Z,6.45
2022-12-12T13:40:32.144Z,6.40
2022-12-12T13:43:09.176Z,8.85
2022-12-12T13:45:42.961Z,6.18
2022-12-12T13:48:34.399Z,8.98
2022-12-12T13:51:38.940Z,6.60
2022-12-12T13:54:52.985Z,6.25
2022-12-12T13:57:33.573Z,6.70
2022-12-12T14:00:22.875Z,8.07
2022-12-12T14:03:01.695Z,7.38
2022-12-12T14:05:34.221Z,7.70
2022-12-12T14:08:08.211Z,8.88
2022-12-12T14:10:38.999Z,7.80
2022-12-12T14:13:30.131Z,7.43
2022-12-12T14:16:04.537Z,8.25
2022-12-12T14:18:36.998Z,9.27
2022-12-12T14:21:08.432Z,8.13
2022-12-12T14:23:38.278Z,8.50
2022-12-12T14:26:39.686Z,9.25
2022-12-12T14:29:28.869Z,7.93
2022-12-12T14:32:16.820Z,9.90
2022-12-12T14:34:51.030Z,10.20
2022-12-12T14:37:51.360Z,10.13
2022-12-12T14:40:22.947Z,9.48
2022-12-12T14:43:19.081Z,11.02
2022-12-12T14:45:56.206Z,9.85
2022-12-12T14:48:27.803Z,10.23
2022-12-12T14:51:00.579Z,9.50
2022-12-12T14:53:36.457Z,7.80
2022-12-12T14:56:10.094Z,10.68
2022-12-12T14:58:41.427Z,10.30
2022-12-12T15:01:11.504Z,8.75
2022-12-12T15:03:44.136Z,9.25
2022-12-12T15:06:38.115Z,8.43
2022-12-12T15:09:18.665Z,9.63
2022-12-12T15:11:48.444Z,9.32
2022-12-12T15:14:20.304Z,7.35
2022-12-12T15:16:57.223Z,8.43
2022-12-12T15:19:30.070Z,7.32
2022-12-12T15:21:59.162Z,7.15
2022-12-12T15:24:30.154Z,8.18
2022-12-12T15:27:00.083Z,8.63
2022-12-12T15:29:32.219Z,7.45
2022-12-12T15:32:05.104Z,7.50
2022-12-12T15:34:40.355Z,6.75
2022-12-12T15:37:21.045Z,6.80
2022-12-12T15:40:00.941Z,6.97
2022-12-12T15:42:29.654Z,7.88
2022-12-12T15:44:58.271Z,6.93
2022-12-12T15:47:27.951Z,6.85
2022-12-12T15:49:56.366Z,7.00
2022-12-12T15:52:28.258Z,6.45
2022-12-12T15:54:58.250Z,7.50
2022-12-12T15:57:28.711Z,7.10
2022-12-12T16:00:01.280Z,6.45
2022-12-12T16:02:32.271Z,5.65
2022-12-12T16:05:06.950Z,6.05
2022-12-12T16:07:37.822Z,7.10
2022-12-12T16:10:22.764Z,6.70
2022-12-12T16:13:00.245Z,6.10
2022-12-12T16:15:35.020Z,7.53
2022-12-12T16:18:07.845Z,7.82
2022-12-12T16:20:36.223Z,6.30
2022-12-12T16:23:18.578Z,5.05
2022-12-12T16:25:49.820Z,5.43
2022-12-12T16:28:25.897Z,5.88
2022-12-12T16:30:58.059Z,5.50
2022-12-12T16:33:31.372Z,6.63
2022-12-12T16:36:01.693Z,7.70
2022-12-12T16:38:30.509Z,7.32
2022-12-12T16:41:01.976Z,6.70
2022-12-12T16:43:30.508Z,8.52
2022-12-12T16:45:59.676Z,5.97
2022-12-12T16:48:33.446Z,5.82
2022-12-12T16:51:04.275Z,5.40
2022-12-12T16:53:32.991Z,6.15
2022-12-12T16:56:03.150Z,6.95
2022-12-12T16:58:33.510Z,6.35
2022-12-12T17:01:02.906Z,4.80
2022-12-12T17:03:32.952Z,6.72
2022-12-12T17:06:02.589Z,7.20
2022-12-12T17:08:30.854Z,6.15
2022-12-12T17:11:09.602Z,5.32
2022-12-12T17:13:40.699Z,6.20
2022-12-12T17:16:09.217Z,6.60
2022-12-12T17:18:38.709Z,7.38
2022-12-12T17:21:07.176Z,7.30
2022-12-12T17:23:35.283Z,9.40
2022-12-12T17:26:05.074Z,9.40
2022-12-12T17:28:35.160Z,10.07
2022-12-12T17:31:07.810Z,10.55
2022-12-12T17:33:45.796Z,9.05
2022-12-12T17:36:20.175Z,8.05
2022-12-12T17:38:48.814Z,8.30
2022-12-12T17:41:16.900Z,9.23
2022-12-12T17:43:46.553Z,11.13
2022-12-12T17:46:18.981Z,8.75
2022-12-12T17:48:49.100Z,10.85
2022-12-12T17:51:21.971Z,12.90
2022-12-12T17:53:52.485Z,8.88
2022-12-12T17:56:22.770Z,11.65
2022-12-12T17:58:52.426Z,12.75
2022-12-12T18:01:23.611Z,11.07
2022-12-12T18:03:52.667Z,12.63
2022-12-12T18:06:23.910Z,12.43
2022-12-12T18:08:54.648Z,11.90
2022-12-12T18:11:26.965Z,11.23
2022-12-12T18:13:57.694Z,9.93
2022-12-12T18:16:29.237Z,10.30
2022-12-12T18:18:58.064Z,13.68
2022-12-12T18:21:59.013Z,14.88
2022-12-12T18:24:19.828Z,14.15
2022-12-12T18:26:52.687Z,13.18
2022-12-12T18:29:22.178Z,11.80
2022-12-12T18:31:50.269Z,12.55
2022-12-12T18:34:18.891Z,11.85
2022-12-12T18:36:49.358Z,9.88
2022-12-12T18:39:17.933Z,12.80
2022-12-12T18:41:46.218Z,10.52
2022-12-12T18:44:16.033Z,11.38
2022-12-12T18:46:44.867Z,9.80
2022-12-12T18:49:15.675Z,10.27
2022-12-12T18:51:45.434Z,7.93
2022-12-12T18:54:17.055Z,10.23
2022-12-12T18:56:46.303Z,11.38
2022-12-12T18:59:15.471Z,10.55
2022-12-12T19:01:44.088Z,9.77
2022-12-12T19:04:16.266Z,8.80
2022-12-12T19:06:49.492Z,8.60
2022-12-12T19:09:20.604Z,9.32
2022-12-12T19:11:54.227Z,8.32
2022-12-12T19:14:35.694Z,8.63
2022-12-12T19:17:08.672Z,8.13
2022-12-12T19:19:36.877Z,8.50
2022-12-12T19:22:18.555Z,7.90
2022-12-12T19:24:54.440Z,6.45
2022-12-12T19:27:22.746Z,8.70
2022-12-12T19:29:51.413Z,7.97
2022-12-12T19:32:19.825Z,8.43
2022-12-12T19:34:49.511Z,7.65
2022-12-12T19:37:17.650Z,7.10
2022-12-12T19:39:45.732Z,6.60
2022-12-12T19:42:15.431Z,8.57
2022-12-12T19:44:43.881Z,8.15
2022-12-12T19:47:13.147Z,6.75
2022-12-12T19:49:41.541Z,8.30
2022-12-12T19:52:14.017Z,6.80
2022-12-12T19:54:44.529Z,5.68
2022-12-12T19:57:12.754Z,7.30
2022-12-12T19:59:42.338Z,6.97
2022-12-12T20:02:11.428Z,7.53
2022-12-12T20:04:40.044Z,6.63
2022-12-12T20:07:08.286Z,7.80
2022-12-12T20:09:37.121Z,6.93
2022-12-12T20:12:06.090Z,9.02
2022-12-12T20:14:35.911Z,7.95
2022-12-12T20:17:05.596Z,8.13
2022-12-12T20:19:33.894Z,8.40
2022-12-12T20:22:03.332Z,6.93
2022-12-12T20:24:32.827Z,10.93
2022-12-12T20:27:04.531Z,10.65
2022-12-12T20:29:33.554Z,8.60
2022-12-12T20:32:01.994Z,9.57
2022-12-12T20:34:31.472Z,8.85
2022-12-12T20:36:59.613Z,9.57
2022-12-12T20:39:28.285Z,8.55
2022-12-12T20:41:57.494Z,8.73
2022-12-12T20:44:26.198Z,9.75
2022-12-12T20:46:54.892Z,9.88
2022-12-12T20:49:24.789Z,9.48
2022-12-12T20:51:56.291Z,8.73
2022-12-12T20:54:25.387Z,8.98
2022-12-12T20:56:54.441Z,9.88
2022-12-12T20:59:23.751Z,10.05
2022-12-12T21:01:52.494Z,10.77
2022-12-12T21:04:21.295Z,9.88
2022-12-12T21:06:51.196Z,9.68
2022-12-12T21:09:25.343Z,10.70
2022-12-12T21:11:54.861Z,10.57
2022-12-12T21:14:24.339Z,9.30
2022-12-12T21:16:53.009Z,11.70
2022-12-12T21:19:23.445Z,9.38
2022-12-12T21:21:52.175Z,10.70
2022-12-12T21:24:22.798Z,9.73
2022-12-12T21:26:51.106Z,9.80
2022-12-12T21:29:19.116Z,9.90
2022-12-12T21:31:51.647Z,9.65
2022-12-12T21:34:21.761Z,11.05
2022-12-12T21:36:52.147Z,9.65
2022-12-12T21:39:22.104Z,12.10
2022-12-12T21:41:51.399Z,10.93
2022-12-12T21:44:20.110Z,9.50
2022-12-12T21:46:49.201Z,11.32
2022-12-12T21:49:30.987Z,9.32
2022-12-12T21:52:01.255Z,12.48
2022-12-12T21:54:31.857Z,11.23
2022-12-12T21:57:02.379Z,11.75
2022-12-12T21:59:31.618Z,11.68
2022-12-12T22:02:01.289Z,10.57
2022-12-12T22:04:29.597Z,12.18
2022-12-12T22:06:59.566Z,10.57
2022-12-12T22:09:27.921Z,13.73
2022-12-12T22:12:03.595Z,13.13
2022-12-12T22:14:33.626Z,11.50
2022-12-12T22:17:03.506Z,10.57
2022-12-12T22:19:32.004Z,12.15
2022-12-12T22:22:00.074Z,12.68
2022-12-12T22:24:28.627Z,10.82
2022-12-12T22:26:58.181Z,12.52
2022-12-12T22:29:26.357Z,12.05
2022-12-12T22:31:54.586Z,14.15
2022-12-12T22:34:24.863Z,12.05
2022-12-12T22:36:54.609Z,12.05
2022-12-12T22:39:24.935Z,11.95
2022-12-12T22:41:55.400Z,13.38
2022-12-12T22:44:26.851Z,12.40
2022-12-12T22:46:56.573Z,12.43
2022-12-12T22:49:27.033Z,11.25
2022-12-12T22:51:56.901Z,11.98
2022-12-12T22:54:25.790Z,15.43
2022-12-12T22:56:54.231Z,11.85
2022-12-12T22:59:22.410Z,11.40
2022-12-12T23:01:51.855Z,14.45
2022-12-12T23:04:20.176Z,12.30
2022-12-12T23:06:48.346Z,14.25
2022-12-12T23:09:21.389Z,12.23
2022-12-12T23:11:50.780Z,10.77
2022-12-12T23:14:22.782Z,11.75
2022-12-12T23:16:52.965Z,14.35
2022-12-12T23:19:23.594Z,11.63
2022-12-12T23:21:53.008Z,12.13
2022-12-12T23:24:21.216Z,12.80
2022-12-12T23:26:51.854Z,12.65
2022-12-12T23:29:20.797Z,11.98
2022-12-12T23:31:49.317Z,14.15
2022-12-12T23:34:22.945Z,10.50
2022-12-12T23:36:52.002Z,12.15
2022-12-12T23:39:20.704Z,12.05
2022-12-12T23:41:48.895Z,11.27
2022-12-12T23:44:20.185Z,9.90
2022-12-12T23:46:48.347Z,12.38
2022-12-12T23:49:20.742Z,10.52
2022-12-12T23:51:50.489Z,11.88
2022-12-12T23:54:20.718Z,9.75
2022-12-12T23:56:51.378Z,11.55
2022-12-12T23:59:21.201Z,10.02
